Barksdale AFB, Louisiana
Current Conditions -  °F | °C
As of 5:58 AM on Friday 28 Nov 2014 (Local Time) from KBAD Reporting Station
Clear Clear  
Wind Chill: 26°   Ceiling: Unl
Heat Index: 33°   Visibility: 10mi
Dew Point: 30°   Wind: 7mph
Humidity: 90%   Direction: 160°SSE
Pressure: 30.38"   Gusts: NA
Location:  32.5°N, 93.67°W
Report Text: KBAD 281158Z AUTO 16006KT 10SM CLR 00/M01 A3038 RMK AO2 SLP292 T00041011 10039 21004 57007
Loading
Personal Weather Stations






























Interactive Weather Map New forecast layout! Learn more

10-Day Weather Forecast

Advertisements
Track Severe Weather on mobile